Time;durP1;ratioP1;P1;durP2;ratioP2;P2;SDS_P1;SDS_P2;PMS_P1;PMS_P2;Temp;Humidity;BMP_temperature;BMP_pressure;BME280_temperature;BME280_humidity;BME280_pressure;Samples;Min_cycle;Max_cycle;Signal;HPM_P1;HPM_P2
2023/04/12 00:01:33;;;;;;;15.73;3.67;;;;;;;-146.27;100.00;83901.13;5087864;28;20101;-65
2023/04/12 00:04:01;;;;;;;7.55;3.72;;;;;;;-146.27;100.00;83911.16;5089096;28;20040;-66
2023/04/12 00:06:31;;;;;;;9.88;4.20;;;;;;;-146.27;100.00;83868.97;5092593;28;20040;-65
2023/04/12 00:08:58;;;;;;;10.38;5.30;;;;;;;-146.27;100.00;83907.16;5090150;28;20039;-65
2023/04/12 00:11:23;;;;;;;9.50;4.03;;;;;;;-146.27;100.00;83933.28;5085250;28;20036;-66
2023/04/12 00:13:49;;;;;;;12.18;4.40;;;;;;;-146.27;100.00;83929.25;5090862;28;20036;-65
2023/04/12 00:16:14;;;;;;;9.02;3.53;;;;;;;-146.27;100.00;83911.16;5091241;28;20028;-66
2023/04/12 00:18:41;;;;;;;10.65;4.53;;;;;;;-146.27;100.00;83909.16;5092107;28;20028;-66
2023/04/12 00:21:09;;;;;;;11.05;4.13;;;;;;;-146.27;100.00;83895.09;5090771;28;20052;-64
2023/04/12 00:23:36;;;;;;;8.15;3.60;;;;;;;-146.27;100.00;83951.34;5089710;28;20055;-65
2023/04/12 00:26:02;;;;;;;6.20;3.33;;;;;;;-146.27;100.00;83915.19;5091057;28;20016;-65
2023/04/12 00:28:27;;;;;;;10.60;3.45;;;;;;;-146.27;100.00;83911.16;5087180;28;20027;-65
2023/04/12 00:30:53;;;;;;;12.38;4.40;;;;;;;-146.27;100.00;83899.09;5085197;28;20107;-65
2023/04/12 00:33:18;;;;;;;6.75;3.55;;;;;;;-146.27;100.00;83923.22;5089643;28;20020;-65
2023/04/12 00:35:44;;;;;;;10.50;3.55;;;;;;;-146.27;100.00;83955.38;5091157;28;20053;-66
2023/04/12 00:38:09;;;;;;;9.88;3.58;;;;;;;-146.27;100.00;83921.22;5091811;28;20020;-67
2023/04/12 00:40:39;;;;;;;5.97;3.42;;;;;;;-146.27;100.00;83931.25;5088111;28;20042;-65
2023/04/12 00:43:05;;;;;;;9.00;3.35;;;;;;;-146.27;100.00;83947.34;5088500;28;20495;-65
2023/04/12 00:45:30;;;;;;;7.72;3.53;;;;;;;-146.27;100.00;83935.28;5089290;28;20758;-66
2023/04/12 00:47:56;;;;;;;5.07;3.15;;;;;;;-146.27;100.00;83979.50;5091002;28;20108;-66
2023/04/12 00:50:22;;;;;;;8.38;3.22;;;;;;;-146.27;100.00;83935.28;5091241;28;20035;-65
2023/04/12 00:52:47;;;;;;;4.10;2.80;;;;;;;-146.27;100.00;83951.34;5089077;28;20062;-65
2023/04/12 00:55:12;;;;;;;9.80;3.03;;;;;;;-146.27;100.00;83903.13;5088689;28;20379;-66
2023/04/12 00:57:39;;;;;;;4.50;2.40;;;;;;;-146.27;100.00;83943.31;5091236;28;20019;-66
2023/04/12 01:00:09;;;;;;;6.70;2.50;;;;;;;-146.27;100.00;84015.66;5088793;28;20387;-65
2023/04/12 01:02:37;;;;;;;9.73;3.00;;;;;;;-146.27;100.00;83885.03;5086885;28;20032;-65
2023/04/12 01:05:04;;;;;;;9.82;3.00;;;;;;;-146.27;100.00;83935.28;5083945;28;20032;-66
2023/04/12 01:07:43;;;;;;;7.38;2.60;;;;;;;-146.27;100.00;83895.09;5087337;28;20052;-66
2023/04/12 01:10:17;;;;;;;3.67;2.55;;;;;;;-146.27;100.00;83937.28;5084505;28;20480;-65
2023/04/12 01:13:11;;;;;;;5.15;2.47;;;;;;;-146.27;100.00;83895.09;5080388;28;20475;-66
2023/04/12 01:15:58;;;;;;;8.50;2.45;;;;;;;-146.27;100.00;83949.34;5088164;28;20073;-67
2023/04/12 01:18:27;;;;;;;5.80;2.15;;;;;;;-146.27;100.00;83917.19;5088616;28;20023;-66
2023/04/12 01:21:01;;;;;;;4.20;2.00;;;;;;;-146.27;100.00;83925.22;5090181;28;20039;-66
2023/04/12 01:23:43;;;;;;;6.18;2.60;;;;;;;-146.27;100.00;83945.31;5088992;28;20030;-67
2023/04/12 01:26:14;;;;;;;5.88;2.35;;;;;;;-146.27;100.00;83943.31;5081147;28;20043;-66
2023/04/12 01:28:42;;;;;;;4.20;1.83;;;;;;;-146.27;100.00;83973.47;5085213;28;20085;-66
2023/04/12 01:31:09;;;;;;;6.78;2.50;;;;;;;-146.27;100.00;83963.41;5091384;28;20093;-66
2023/04/12 01:33:37;;;;;;;7.22;2.25;;;;;;;-146.27;100.00;83983.50;5085472;28;20024;-65
2023/04/12 01:36:14;;;;;;;2.90;1.80;;;;;;;-146.27;100.00;83971.47;5087705;28;20020;-66
2023/04/12 01:38:40;;;;;;;3.60;2.45;;;;;;;-146.27;100.00;83979.50;5084382;28;20028;-67
2023/04/12 01:41:07;;;;;;;5.45;1.90;;;;;;;-146.27;100.00;83971.47;5085642;28;20104;-66
2023/04/12 01:43:32;;;;;;;4.45;1.88;;;;;;;-146.27;100.00;83983.50;5088235;28;20447;-66
2023/04/12 01:45:58;;;;;;;3.85;1.80;;;;;;;-146.27;100.00;83951.34;5090396;28;20140;-66
2023/04/12 01:48:24;;;;;;;4.30;1.95;;;;;;;-146.27;100.00;84003.59;5084080;28;20052;-66
2023/04/12 01:51:13;;;;;;;5.00;2.05;;;;;;;-146.27;100.00;83983.50;5076943;28;20059;-65
2023/04/12 01:53:49;;;;;;;3.60;1.83;;;;;;;-146.27;100.00;83971.47;5089110;28;20039;-67
2023/04/12 01:56:17;;;;;;;7.80;1.80;;;;;;;-146.27;100.00;83979.50;5091115;28;20515;-65
2023/04/12 01:58:45;;;;;;;4.35;1.80;;;;;;;-146.27;100.00;83991.56;5088097;28;20055;-66
2023/04/12 02:01:14;;;;;;;3.30;1.80;;;;;;;-146.27;100.00;83981.50;5084072;28;20074;-66
2023/04/12 02:03:44;;;;;;;2.70;1.50;;;;;;;-146.27;100.00;83975.47;5088311;28;20123;-66
2023/04/12 02:06:09;;;;;;;3.15;1.60;;;;;;;-146.27;100.00;83967.44;5091982;28;20504;-66
2023/04/12 02:08:36;;;;;;;2.97;1.55;;;;;;;-146.27;100.00;83993.56;5089430;28;20058;-64
2023/04/12 02:11:07;;;;;;;5.03;2.13;;;;;;;-146.27;100.00;83971.47;5091848;28;20472;-65
2023/04/12 02:13:32;;;;;;;2.58;1.67;;;;;;;-146.27;100.00;83993.56;5085326;28;20454;-66
2023/04/12 02:15:58;;;;;;;7.50;1.60;;;;;;;-146.27;100.00;83999.59;5090451;28;20106;-65
2023/04/12 02:18:23;;;;;;;4.07;1.95;;;;;;;-146.27;100.00;84027.72;5086666;28;20060;-66
2023/04/12 02:20:48;;;;;;;4.55;1.77;;;;;;;-146.27;100.00;83987.53;5080531;28;20025;-66
2023/04/12 02:23:14;;;;;;;2.42;1.98;;;;;;;-146.27;100.00;83995.56;5082529;28;20078;-67
2023/04/12 02:25:40;;;;;;;1.95;1.23;;;;;;;-146.27;100.00;84061.88;5090564;28;20016;-67
2023/04/12 02:28:05;;;;;;;5.78;1.90;;;;;;;-146.27;100.00;84003.59;5088593;28;20031;-66
2023/04/12 02:30:31;;;;;;;5.32;1.90;;;;;;;-146.27;100.00;83999.59;5086993;28;20481;-65
2023/04/12 02:32:57;;;;;;;5.82;2.00;;;;;;;-146.27;100.00;83975.47;5082897;28;20023;-65
2023/04/12 02:35:23;;;;;;;1.92;1.35;;;;;;;-146.27;100.00;84061.88;5081370;28;20110;-67
2023/04/12 02:37:50;;;;;;;2.50;1.63;;;;;;;-146.27;100.00;84009.63;5092417;28;20100;-64
2023/04/12 02:40:15;;;;;;;3.55;1.63;;;;;;;-146.27;100.00;83995.56;5087913;28;20031;-66
2023/04/12 02:42:41;;;;;;;5.53;1.92;;;;;;;-146.27;100.00;83985.53;5093889;28;20039;-67
2023/04/12 02:45:08;;;;;;;4.88;2.10;;;;;;;-146.27;100.00;84023.69;5089675;28;20024;-67
2023/04/12 02:47:33;;;;;;;4.53;2.03;;;;;;;-146.27;100.00;84015.66;5083287;28;20035;-66
2023/04/12 02:49:58;;;;;;;4.22;1.58;;;;;;;-146.27;100.00;84025.72;5091556;28;20020;-66
2023/04/12 02:52:24;;;;;;;6.72;2.30;;;;;;;-146.27;100.00;83979.50;5090823;28;20028;-66
2023/04/12 02:54:50;;;;;;;5.05;2.20;;;;;;;-146.27;100.00;84011.66;5093294;28;20020;-66
2023/04/12 02:57:15;;;;;;;6.32;1.95;;;;;;;-146.27;100.00;84005.63;5093482;28;20028;-66
2023/04/12 02:59:41;;;;;;;4.97;2.08;;;;;;;-146.27;100.00;83977.47;5086727;28;20062;-66
2023/04/12 03:02:07;;;;;;;8.68;2.45;;;;;;;-146.27;100.00;84007.63;5093108;28;20032;-66
2023/04/12 03:04:33;;;;;;;4.38;2.03;;;;;;;-146.27;100.00;84003.59;5082793;28;20036;-67
2023/04/12 03:06:59;;;;;;;7.07;2.20;;;;;;;-146.27;100.00;84007.63;5089996;28;20040;-68
2023/04/12 03:09:24;;;;;;;6.05;2.58;;;;;;;-146.27;100.00;84045.81;5093550;28;20028;-68
2023/04/12 03:11:50;;;;;;;9.32;2.60;;;;;;;-146.27;100.00;84001.59;5091423;28;20122;-67
2023/04/12 03:14:16;;;;;;;5.97;2.42;;;;;;;-146.27;100.00;84021.69;5091299;28;20024;-67
2023/04/12 03:16:42;;;;;;;4.82;2.20;;;;;;;-146.27;100.00;84007.63;5092326;28;20379;-66
2023/04/12 03:19:07;;;;;;;4.30;2.35;;;;;;;-146.27;100.00;84003.59;5090371;28;20032;-67
2023/04/12 03:21:33;;;;;;;4.07;2.35;;;;;;;-146.27;100.00;84035.75;5088384;28;20149;-65
2023/04/12 03:23:58;;;;;;;6.60;2.38;;;;;;;-146.27;100.00;84021.69;5093530;28;20020;-67
2023/04/12 03:26:25;;;;;;;5.60;2.45;;;;;;;-146.27;100.00;84007.63;5092272;28;20028;-67
2023/04/12 03:28:53;;;;;;;5.72;2.80;;;;;;;-146.27;100.00;83995.56;5089742;28;20027;-67
2023/04/12 03:31:20;;;;;;;6.00;2.92;;;;;;;-146.27;100.00;84007.63;5090594;28;20031;-66
2023/04/12 03:33:45;;;;;;;9.43;3.05;;;;;;;-146.27;100.00;84031.75;5088478;28;20031;-66
2023/04/12 03:36:11;;;;;;;6.15;3.50;;;;;;;-146.27;100.00;84023.69;5091659;28;20036;-66
2023/04/12 03:38:36;;;;;;;7.45;2.92;;;;;;;-146.27;100.00;84003.59;5092806;28;20111;-66
2023/04/12 03:41:02;;;;;;;3.75;2.70;;;;;;;-146.27;100.00;84003.59;5093725;28;20153;-66
2023/04/12 03:43:27;;;;;;;5.05;3.30;;;;;;;-146.27;100.00;83995.56;5087973;28;20077;-66
2023/04/12 03:45:53;;;;;;;4.05;2.97;;;;;;;-146.27;100.00;84019.69;5084472;28;20028;-66
2023/04/12 03:48:18;;;;;;;6.15;3.63;;;;;;;-146.27;100.00;84023.69;5090021;28;20123;-67
2023/04/12 03:50:44;;;;;;;6.00;3.35;;;;;;;-146.27;100.00;84023.69;5093995;28;20035;-65
2023/04/12 03:53:10;;;;;;;5.55;3.38;;;;;;;-146.27;100.00;83971.47;5085923;28;20032;-66
2023/04/12 03:55:36;;;;;;;5.68;3.30;;;;;;;-146.27;100.00;83989.53;5091942;28;20028;-67
2023/04/12 03:58:02;;;;;;;4.30;3.22;;;;;;;-146.27;100.00;84003.59;5091553;28;20047;-67
2023/04/12 04:00:30;;;;;;;6.00;2.75;;;;;;;-146.27;100.00;83993.56;5091153;28;20030;-67
2023/04/12 04:02:57;;;;;;;5.43;3.08;;;;;;;-146.27;100.00;84003.59;5089169;28;20107;-67
2023/04/12 04:05:23;;;;;;;6.45;2.85;;;;;;;-146.27;100.00;84023.69;5089872;28;20024;-67
2023/04/12 04:07:48;;;;;;;3.92;3.15;;;;;;;-146.27;100.00;83963.41;5090038;28;20110;-67
2023/04/12 04:10:14;;;;;;;4.88;3.17;;;;;;;-146.27;100.00;84037.78;5085090;28;20028;-67
2023/04/12 04:12:39;;;;;;;5.95;3.00;;;;;;;-146.27;100.00;84057.88;5091746;28;20024;-67
2023/04/12 04:15:05;;;;;;;4.32;3.15;;;;;;;-146.27;100.00;84053.84;5089597;28;20472;-67
2023/04/12 04:17:30;;;;;;;5.72;3.05;;;;;;;-146.27;100.00;84047.81;5091383;28;20054;-67
2023/04/12 04:19:56;;;;;;;4.60;3.00;;;;;;;-146.27;100.00;84021.69;5091639;28;20055;-67
2023/04/12 04:22:21;;;;;;;6.10;3.28;;;;;;;-146.27;100.00;84023.69;5078580;28;20035;-67
2023/04/12 04:24:47;;;;;;;4.75;3.33;;;;;;;-146.27;100.00;84084.00;5087121;28;20468;-66
2023/04/12 04:27:14;;;;;;;5.05;4.15;;;;;;;-146.27;100.00;84025.72;5086552;28;20024;-67
2023/04/12 04:29:44;;;;;;;8.70;3.53;;;;;;;-146.27;100.00;84027.72;5085524;28;20078;-67
2023/04/12 04:32:10;;;;;;;6.53;4.15;;;;;;;-146.27;100.00;84007.63;5085242;28;20108;-66
2023/04/12 04:34:36;;;;;;;8.27;4.15;;;;;;;-146.27;100.00;84005.63;5085717;28;20036;-67
2023/04/12 04:37:01;;;;;;;5.95;4.43;;;;;;;-146.27;100.00;83995.56;5084812;28;20383;-67
2023/04/12 04:39:27;;;;;;;5.57;4.18;;;;;;;-146.27;100.00;84003.59;5084155;28;20365;-67
2023/04/12 04:41:53;;;;;;;6.00;4.53;;;;;;;-146.27;100.00;83999.59;5079618;28;20087;-67
2023/04/12 04:44:19;;;;;;;11.90;5.53;;;;;;;-146.27;100.00;83999.59;5083038;28;20028;-66
2023/04/12 04:46:45;;;;;;;10.38;6.32;;;;;;;-146.27;100.00;83991.56;5087849;28;20038;-67
2023/04/12 04:49:10;;;;;;;9.85;6.32;;;;;;;-146.27;100.00;84013.66;5090869;28;20107;-66
2023/04/12 04:51:36;;;;;;;8.93;6.50;;;;;;;-146.27;100.00;83995.56;5088614;28;20034;-66
2023/04/12 04:54:01;;;;;;;11.30;7.53;;;;;;;-146.27;100.00;84007.63;5091817;28;20059;-67
2023/04/12 04:56:27;;;;;;;11.90;8.15;;;;;;;-146.27;100.00;83987.53;5090806;28;20099;-66
2023/04/12 04:58:52;;;;;;;12.40;8.93;;;;;;;-146.27;100.00;83989.53;5088413;28;20036;-68
2023/04/12 05:01:18;;;;;;;13.70;8.55;;;;;;;-146.27;100.00;83983.50;5085269;28;20024;-66
2023/04/12 05:03:43;;;;;;;17.33;9.82;;;;;;;-146.27;100.00;84015.66;5085219;28;20441;-66
2023/04/12 05:06:10;;;;;;;12.50;9.18;;;;;;;-146.27;100.00;83937.28;5089424;28;20028;-66
2023/04/12 05:08:35;;;;;;;13.35;8.75;;;;;;;-146.27;100.00;83941.31;5089181;28;20024;-66
2023/04/12 05:11:01;;;;;;;16.50;9.02;;;;;;;-146.27;100.00;83951.34;5090619;28;20153;-66
2023/04/12 05:13:27;;;;;;;13.88;7.43;;;;;;;-146.27;100.00;83949.34;5091044;28;20101;-66
2023/04/12 05:15:52;;;;;;;13.88;8.02;;;;;;;-146.27;100.00;83991.56;5091177;28;20046;-67
2023/04/12 05:18:17;;;;;;;17.15;8.35;;;;;;;-146.27;100.00;83975.47;5088129;28;20035;-66
2023/04/12 05:20:43;;;;;;;11.10;7.60;;;;;;;-146.27;100.00;83949.34;5089070;28;20503;-66
2023/04/12 05:23:08;;;;;;;16.38;7.15;;;;;;;-146.27;100.00;83955.38;5085349;28;20042;-67
2023/04/12 05:25:34;;;;;;;19.75;7.13;;;;;;;-146.27;100.00;83957.38;5084000;28;20024;-66
2023/04/12 05:28:00;;;;;;;17.80;7.40;;;;;;;-146.27;100.00;83957.38;5084766;28;20073;-66
2023/04/12 05:30:25;;;;;;;17.17;6.63;;;;;;;-146.27;100.00;83949.34;5086362;28;20026;-66
2023/04/12 05:32:50;;;;;;;13.73;6.68;;;;;;;-146.27;100.00;83951.34;5090173;28;20031;-65
2023/04/12 05:35:16;;;;;;;15.65;6.55;;;;;;;-146.27;100.00;83939.31;5074422;28;20032;-65
2023/04/12 05:37:41;;;;;;;16.15;5.45;;;;;;;-146.27;100.00;83931.25;5085763;28;20471;-66
2023/04/12 05:40:08;;;;;;;15.98;4.43;;;;;;;-146.27;100.00;83927.25;5089114;28;20047;-66
2023/04/12 05:42:37;;;;;;;14.48;4.63;;;;;;;-146.27;100.00;83949.34;5083747;28;20035;-66
2023/04/12 05:45:05;;;;;;;18.00;4.68;;;;;;;-146.27;100.00;83915.19;5085373;28;20047;-66
2023/04/12 05:47:31;;;;;;;21.67;5.28;;;;;;;-146.27;100.00;83947.34;5090463;28;20476;-65
2023/04/12 05:49:56;;;;;;;15.07;4.40;;;;;;;-146.27;100.00;83955.38;5090373;28;20039;-67
2023/04/12 05:52:21;;;;;;;13.95;4.22;;;;;;;-146.27;100.00;83905.13;5089901;28;20066;-65
2023/04/12 05:54:47;;;;;;;12.30;4.13;;;;;;;-146.27;100.00;83947.34;5086040;28;20119;-67
2023/04/12 05:57:14;;;;;;;19.45;4.25;;;;;;;-146.27;100.00;83925.22;5085323;28;20035;-66
2023/04/12 05:59:39;;;;;;;19.55;4.05;;;;;;;-146.27;100.00;83897.09;5082923;28;20024;-66
2023/04/12 06:02:06;;;;;;;15.02;3.72;;;;;;;-146.27;100.00;83945.31;5086765;28;20024;-66
2023/04/12 06:04:31;;;;;;;20.70;3.42;;;;;;;-146.27;100.00;83911.16;5089765;28;20035;-66
2023/04/12 06:06:57;;;;;;;15.27;4.53;;;;;;;-146.27;100.00;83961.41;5088023;28;20487;-66
2023/04/12 06:09:22;;;;;;;25.30;3.58;;;;;;;-146.27;100.00;83899.09;5086327;28;20433;-66
2023/04/12 06:11:47;;;;;;;17.70;2.58;;;;;;;-146.27;100.00;83887.06;5091531;28;20038;-66
2023/04/12 06:14:13;;;;;;;19.65;2.83;;;;;;;-146.27;100.00;83879.00;5089123;28;20025;-67
2023/04/12 06:16:38;;;;;;;25.95;3.15;;;;;;;-146.27;100.00;83919.19;5088869;28;20016;-66
2023/04/12 06:19:04;;;;;;;24.38;2.80;;;;;;;-146.27;100.00;83909.16;5092786;28;20060;-66
2023/04/12 06:21:29;;;;;;;22.75;3.53;;;;;;;-146.27;100.00;83907.16;5093552;28;20031;-67
2023/04/12 06:23:55;;;;;;;28.15;3.42;;;;;;;-146.27;100.00;83889.06;5090216;28;20486;-67
2023/04/12 06:26:20;;;;;;;21.30;2.80;;;;;;;-146.27;100.00;83943.31;5092394;28;20475;-65
2023/04/12 06:28:46;;;;;;;24.17;3.90;;;;;;;-146.27;100.00;83889.06;5090968;28;20154;-66
2023/04/12 06:31:11;;;;;;;16.05;2.25;;;;;;;-146.27;100.00;83905.13;5082636;28;20063;-67
2023/04/12 06:33:36;;;;;;;16.95;2.70;;;;;;;-146.27;100.00;83911.16;5090372;28;20024;-66
2023/04/12 06:36:02;;;;;;;16.08;2.47;;;;;;;-146.27;100.00;83895.09;5090613;28;20039;-75
2023/04/12 06:38:27;;;;;;;19.30;3.30;;;;;;;-146.27;100.00;83931.25;5082461;28;20032;-67
2023/04/12 06:40:53;;;;;;;31.85;3.33;;;;;;;-146.27;100.00;83919.19;5092433;28;20159;-67
2023/04/12 06:43:19;;;;;;;27.90;4.78;;;;;;;-146.27;100.00;83903.13;5088394;28;20039;-67
2023/04/12 06:45:45;;;;;;;27.50;3.45;;;;;;;-146.27;100.00;83858.91;5093395;28;20102;-67
2023/04/12 06:48:10;;;;;;;18.38;2.83;;;;;;;-146.27;100.00;83862.94;5086889;28;20023;-68
2023/04/12 06:50:36;;;;;;;20.13;2.60;;;;;;;-146.27;100.00;83903.13;5091288;28;20077;-67
2023/04/12 06:53:01;;;;;;;19.17;3.33;;;;;;;-146.27;100.00;83947.34;5094287;28;20475;-68
2023/04/12 06:55:28;;;;;;;22.35;2.85;;;;;;;-146.27;100.00;83870.97;5093278;28;20028;-68
2023/04/12 06:57:53;;;;;;;25.23;3.33;;;;;;;-146.27;100.00;83901.13;5083447;28;20054;-67
2023/04/12 07:00:19;;;;;;;25.38;3.05;;;;;;;-146.27;100.00;83893.06;5092325;28;20024;-68
2023/04/12 07:02:45;;;;;;;24.33;3.22;;;;;;;-146.27;100.00;83850.88;5089881;28;20024;-68
2023/04/12 07:05:10;;;;;;;18.95;2.55;;;;;;;-146.27;100.00;83903.13;5086848;28;20059;-67
2023/04/12 07:07:36;;;;;;;19.27;2.55;;;;;;;-146.27;100.00;83866.97;5094124;28;20113;-67
2023/04/12 07:10:03;;;;;;;23.30;2.83;;;;;;;-146.27;100.00;83877.00;5089740;28;20024;-67
2023/04/12 07:12:28;;;;;;;25.08;2.80;;;;;;;-146.27;100.00;83870.97;5091310;28;20024;-69
2023/04/12 07:14:53;;;;;;;30.08;3.17;;;;;;;-146.27;100.00;83862.94;5091329;28;20375;-70
2023/04/12 07:17:20;;;;;;;20.77;3.30;;;;;;;-146.27;100.00;83832.78;5093895;28;20035;-70
2023/04/12 07:19:46;;;;;;;16.63;2.65;;;;;;;-146.27;100.00;83858.91;5083878;28;20020;-70
2023/04/12 07:22:12;;;;;;;20.63;3.25;;;;;;;-146.27;100.00;83903.13;5076215;28;20119;-70
2023/04/12 07:24:37;;;;;;;20.45;3.10;;;;;;;-146.27;100.00;83820.75;5090442;28;20118;-68
2023/04/12 07:27:03;;;;;;;32.03;2.60;;;;;;;-146.27;100.00;83786.56;5090450;28;20090;-68
2023/04/12 07:29:28;;;;;;;19.27;2.65;;;;;;;-146.27;100.00;83798.63;5089650;28;20052;-69
2023/04/12 07:31:53;;;;;;;23.85;3.38;;;;;;;-146.27;100.00;83762.47;5093123;28;20024;-69
2023/04/12 07:34:19;;;;;;;18.45;3.22;;;;;;;-146.27;100.00;83730.31;5093201;28;20024;-70
2023/04/12 07:36:44;;;;;;;20.27;2.30;;;;;;;-146.27;100.00;83706.19;5089039;28;20028;-68
2023/04/12 07:39:11;;;;;;;19.60;3.22;;;;;;;-146.27;100.00;83653.94;5089065;28;20028;-69
2023/04/12 07:41:37;;;;;;;13.27;2.50;;;;;;;-146.27;100.00;83698.16;5091081;28;20115;-70
2023/04/12 07:44:03;;;;;;;30.08;2.60;;;;;;;-146.27;100.00;83657.97;5091081;28;20020;-69
2023/04/12 07:46:29;;;;;;;21.20;2.38;;;;;;;-146.27;100.00;83668.00;5093620;28;20048;-69
2023/04/12 07:48:54;;;;;;;29.85;2.60;;;;;;;-146.27;99.57;83682.09;5092106;28;20038;-70
2023/04/12 07:51:19;;;;;;;17.80;2.67;;;;;;;-146.27;98.16;83702.19;5093285;28;20027;-70
2023/04/12 07:53:47;;;;;;;17.33;3.08;;;;;;;-146.27;99.73;83708.22;5092285;28;20371;-70
2023/04/12 07:56:13;;;;;;;27.30;2.90;;;;;;;-146.27;99.02;83714.22;5088086;28;20024;-67
2023/04/12 07:58:38;;;;;;;19.60;2.15;;;;;;;-146.27;99.88;83744.38;5084639;28;20030;-69
2023/04/12 08:01:04;;;;;;;23.70;2.95;;;;;;;-146.27;100.00;83714.22;5090682;28;20483;-69
2023/04/12 08:03:30;;;;;;;18.75;2.70;;;;;;;-146.27;99.54;83776.53;5092553;28;20024;-68
2023/04/12 08:05:55;;;;;;;21.67;2.97;;;;;;;-146.27;99.30;83746.38;5089492;28;20062;-65
2023/04/12 08:08:21;;;;;;;18.27;3.15;;;;;;;-146.27;97.08;83722.28;5073198;28;20115;-68
2023/04/12 08:10:47;;;;;;;20.17;2.50;;;;;;;-146.27;94.55;83712.22;5086108;28;20099;-68
2023/04/12 08:13:13;;;;;;;10.90;2.45;;;;;;;-146.27;91.27;83712.22;5086585;28;20107;-70
2023/04/12 08:15:38;;;;;;;14.75;2.72;;;;;;;-146.27;93.37;83722.28;5093262;28;20016;-69
2023/04/12 08:18:04;;;;;;;18.13;2.20;;;;;;;-146.27;93.03;83633.84;5087516;28;20030;-68
2023/04/12 08:20:30;;;;;;;8.30;1.85;;;;;;;-146.27;92.24;83625.81;5092829;28;20032;-69
2023/04/12 08:22:56;;;;;;;10.73;1.85;;;;;;;-146.27;95.16;83670.03;5074533;28;20379;-68
2023/04/12 08:25:22;;;;;;;9.57;1.50;;;;;;;-146.27;91.39;83682.09;5072854;28;20078;-69
2023/04/12 08:27:49;;;;;;;10.75;2.05;;;;;;;-146.27;89.40;83627.81;5073084;28;20021;-69
2023/04/12 08:30:14;;;;;;;12.25;1.95;;;;;;;-146.27;82.41;83629.84;5087721;28;20047;-69
2023/04/12 08:32:40;;;;;;;21.08;2.75;;;;;;;-146.27;80.73;83619.78;5086951;28;20015;-69
2023/04/12 08:35:06;;;;;;;18.45;2.15;;;;;;;-146.27;77.02;83609.75;5088141;28;20031;-68
2023/04/12 08:37:33;;;;;;;14.27;3.28;;;;;;;-146.27;79.42;83589.66;5084470;28;20097;-69
2023/04/12 08:40:03;;;;;;;12.05;2.35;;;;;;;-146.27;80.72;83565.53;5072770;28;20024;-68
2023/04/12 08:42:30;;;;;;;17.85;2.20;;;;;;;-146.27;78.23;83599.69;5088142;28;20042;-69
2023/04/12 08:44:55;;;;;;;23.38;2.72;;;;;;;-146.27;78.62;83501.22;5092936;28;20047;-68
2023/04/12 08:47:21;;;;;;;14.45;2.53;;;;;;;-146.27;79.09;83497.22;5085299;28;20104;-69
2023/04/12 08:49:46;;;;;;;22.95;2.90;;;;;;;-146.27;76.58;83469.09;5083147;28;20051;-69
2023/04/12 08:52:12;;;;;;;23.25;2.40;;;;;;;-146.27;78.11;83473.09;5076107;28;20736;-68
2023/04/12 08:54:37;;;;;;;19.83;2.88;;;;;;;-146.27;78.68;83420.88;5089716;28;20023;-70
2023/04/12 08:57:05;;;;;;;23.45;3.33;;;;;;;-146.27;79.39;83493.19;5086125;28;20063;-69
2023/04/12 08:59:35;;;;;;;14.88;2.63;;;;;;;-146.27;79.56;83501.22;5085930;28;20430;-68
2023/04/12 09:02:01;;;;;;;11.43;2.22;;;;;;;-146.27;78.86;83473.09;5090817;28;20418;-68
2023/04/12 09:04:26;;;;;;;16.92;2.38;;;;;;;-146.27;78.54;83442.97;5083402;28;20123;-68
2023/04/12 09:06:51;;;;;;;15.85;2.20;;;;;;;-146.27;78.79;83497.22;5083586;28;20048;-68
2023/04/12 09:09:17;;;;;;;17.95;2.80;;;;;;;-146.27;78.49;83489.19;5085797;28;20020;-68
2023/04/12 09:11:43;;;;;;;14.00;2.47;;;;;;;-146.27;81.28;83457.03;5088010;28;20098;-68
2023/04/12 09:14:20;;;;;;;15.98;2.78;;;;;;;-146.27;81.33;83457.03;5089316;28;20020;-68
2023/04/12 09:16:47;;;;;;;18.70;2.58;;;;;;;-146.27;78.93;83459.03;5087116;28;20364;-68
2023/04/12 09:19:12;;;;;;;22.50;3.13;;;;;;;-146.27;81.08;83420.88;5085278;28;20024;-69
2023/04/12 09:21:52;;;;;;;13.10;2.55;;;;;;;-146.27;82.92;83412.81;5084135;28;20031;-68
2023/04/12 09:24:17;;;;;;;21.70;2.55;;;;;;;-146.27;79.30;83426.88;5091068;28;20101;-69
2023/04/12 09:26:43;;;;;;;17.52;2.75;;;;;;;-146.27;81.23;83356.56;5079402;28;20151;-69
2023/04/12 09:29:25;;;;;;;20.15;2.83;;;;;;;-146.27;78.81;83362.59;5084601;28;20507;-68
2023/04/12 09:32:08;;;;;;;12.55;2.38;;;;;;;-146.27;79.15;83318.38;5089647;28;20237;-68
2023/04/12 09:34:35;;;;;;;17.85;2.83;;;;;;;-146.27;79.51;83370.63;5081629;28;20028;-69
2023/04/12 09:37:13;;;;;;;18.17;3.05;;;;;;;-146.27;73.10;83388.72;5086330;28;20032;-68
2023/04/12 09:39:38;;;;;;;16.05;2.42;;;;;;;-146.27;70.83;83384.69;5081292;28;20028;-66
2023/04/12 09:42:06;;;;;;;9.88;2.42;;;;;;;-146.27;70.64;83400.78;5081165;28;20381;-66
2023/04/12 09:44:33;;;;;;;20.08;3.10;;;;;;;-146.27;69.57;83453.00;5073558;28;20137;-67
2023/04/12 09:47:00;;;;;;;14.30;2.28;;;;;;;-146.27;67.45;83410.81;5078337;28;20024;-68
2023/04/12 09:49:42;;;;;;;17.48;2.60;;;;;;;-146.27;70.65;83396.75;5081972;28;20028;-67
2023/04/12 09:52:10;;;;;;;12.95;2.05;;;;;;;-146.27;71.19;83416.84;5088334;28;20024;-67
2023/04/12 09:54:45;;;;;;;17.00;2.15;;;;;;;-146.27;70.89;83408.81;5085392;28;20613;-67
2023/04/12 09:57:11;;;;;;;19.88;2.28;;;;;;;-146.27;72.95;83320.41;5086548;28;20047;-67
2023/04/12 09:59:40;;;;;;;20.05;3.22;;;;;;;-146.27;71.84;83324.41;5087281;28;20031;-67
2023/04/12 10:02:16;;;;;;;15.52;2.20;;;;;;;-146.27;72.34;83225.97;5083566;28;20046;-67
2023/04/12 10:04:42;;;;;;;11.85;2.45;;;;;;;-146.27;65.54;83232.00;5087461;28;20442;-68
2023/04/12 10:07:08;;;;;;;16.73;2.35;;;;;;;-146.27;63.17;83276.19;5083215;28;20682;-68
2023/04/12 10:09:37;;;;;;;14.52;1.83;;;;;;;-146.27;56.56;83384.69;5077899;28;20042;-68
2023/04/12 10:12:03;;;;;;;10.38;1.83;;;;;;;-146.27;55.59;83332.44;5088621;28;20443;-69
2023/04/12 10:14:30;;;;;;;11.25;2.00;;;;;;;-146.27;58.86;83376.66;5091997;28;20164;-68
2023/04/12 10:17:00;;;;;;;16.48;1.90;;;;;;;-146.27;60.31;83316.38;5087226;28;20054;-67
2023/04/12 10:19:28;;;;;;;19.13;2.50;;;;;;;-146.27;56.38;83256.09;5088250;28;20077;-69
2023/04/12 10:21:54;;;;;;;12.57;2.50;;;;;;;-146.27;51.83;83234.00;5078445;28;20438;-69
2023/04/12 10:24:22;;;;;;;15.30;1.40;;;;;;;-146.27;50.40;83258.13;5074082;28;20696;-69
2023/04/12 10:26:49;;;;;;;11.23;1.88;;;;;;;-146.27;48.26;83199.84;5090792;28;20459;-69
2023/04/12 10:29:32;;;;;;;13.38;3.05;;;;;;;-146.27;49.12;83103.41;5082239;28;20578;-69
2023/04/12 10:32:18;;;;;;;11.63;1.83;;;;;;;-146.27;46.49;83063.22;5083339;28;20027;-69
2023/04/12 10:34:44;;;;;;;10.48;1.92;;;;;;;-146.27;45.90;82976.81;5085279;28;20025;-69
2023/04/12 10:37:09;;;;;;;10.90;1.65;;;;;;;-146.27;47.83;82944.69;5071471;28;20031;-69
2023/04/12 10:39:43;;;;;;;19.08;2.92;;;;;;;-146.27;48.71;83071.25;5074650;28;20087;-69
2023/04/12 10:42:17;;;;;;;;;;;;;;;-146.27;51.45;83079.28;5098788;28;20111;-68
2023/04/12 10:44:43;;;;;;;16.83;1.83;;;;;;;-146.27;49.92;83143.59;5089702;28;20006;-68
2023/04/12 10:47:09;;;;;;;18.67;2.60;;;;;;;-146.27;49.24;83139.56;5082478;28;20099;-68
2023/04/12 10:49:35;;;;;;;6.25;1.20;;;;;;;-146.27;46.04;83189.78;5090800;28;20034;-68
2023/04/12 10:52:02;;;;;;;11.18;1.77;;;;;;;-146.27;49.13;83163.69;5091450;28;20024;-68
2023/04/12 10:54:30;;;;;;;9.85;2.17;;;;;;;-146.27;49.15;83163.69;5089978;28;20036;-68
2023/04/12 10:56:56;;;;;;;9.38;1.67;;;;;;;-146.27;48.18;83055.19;5087276;28;20027;-68
2023/04/12 10:59:22;;;;;;;8.13;1.25;;;;;;;-146.27;46.72;83047.16;5089127;28;20032;-69
2023/04/12 11:02:06;;;;;;;12.05;1.50;;;;;;;-146.27;45.08;83047.16;5083017;28;20037;-68
2023/04/12 11:04:31;;;;;;;11.55;1.60;;;;;;;-146.27;44.93;82994.91;5078851;28;20118;-69
2023/04/12 11:07:03;;;;;;;10.98;1.42;;;;;;;-146.27;44.65;82970.81;5074230;28;20123;-69